Time;durP1;ratioP1;P1;durP2;ratioP2;P2;SDS_P1;SDS_P2;PMS_P1;PMS_P2;Temp;Humidity;BMP_temperature;BMP_pressure;BME280_temperature;BME280_humidity;BME280_pressure;Samples;Min_cycle;Max_cycle;Signal;HPM_P1;HPM_P2
2022/05/15 00:02:41;;;;;;;21.33;7.73;;;10.70;99.90;;;;;;5068818;28;20052;-77
2022/05/15 00:05:08;;;;;;;24.03;7.60;;;10.70;99.90;;;;;;5059537;28;20257;-77
2022/05/15 00:07:34;;;;;;;24.63;8.40;;;10.60;99.90;;;;;;5057948;28;20048;-78
2022/05/15 00:10:00;;;;;;;21.93;7.70;;;10.60;99.90;;;;;;5076034;28;20052;-77
2022/05/15 00:12:26;;;;;;;21.60;7.43;;;10.60;99.90;;;;;;5068003;28;20086;-77
2022/05/15 00:14:51;;;;;;;21.13;6.83;;;10.60;99.90;;;;;;5043648;28;20593;-77
2022/05/15 00:17:17;;;;;;;23.00;7.20;;;10.50;99.90;;;;;;5074520;28;20048;-77
2022/05/15 00:19:43;;;;;;;19.87;6.90;;;10.40;99.90;;;;;;5043022;28;20056;-77
2022/05/15 00:22:09;;;;;;;18.13;6.83;;;10.30;99.90;;;;;;5064296;28;20051;-77
2022/05/15 00:24:38;;;;;;;20.97;6.87;;;10.30;99.90;;;;;;5074777;28;20149;-76
2022/05/15 00:27:04;;;;;;;23.43;6.20;;;10.20;99.90;;;;;;5076127;28;20094;-78
2022/05/15 00:29:30;;;;;;;19.10;6.37;;;10.10;99.90;;;;;;5074133;28;20060;-77
2022/05/15 00:31:56;;;;;;;18.30;6.60;;;10.10;99.90;;;;;;5066169;28;20903;-77
2022/05/15 00:34:22;;;;;;;23.73;7.23;;;10.00;99.90;;;;;;5065454;28;20059;-77
2022/05/15 00:36:48;;;;;;;23.57;6.57;;;10.00;99.90;;;;;;5071895;28;20052;-77
2022/05/15 00:39:14;;;;;;;22.87;7.83;;;10.00;99.90;;;;;;5074609;28;20044;-77
2022/05/15 00:41:40;;;;;;;19.03;6.87;;;9.90;99.90;;;;;;5074813;28;20047;-78
2022/05/15 00:44:08;;;;;;;31.57;6.93;;;9.90;99.90;;;;;;5074205;28;20044;-77
2022/05/15 00:46:40;;;;;;;29.17;7.93;;;9.80;99.90;;;;;;5068853;28;20041;-77
2022/05/15 00:49:10;;;;;;;24.43;7.13;;;9.80;99.90;;;;;;5062895;28;20167;-78
2022/05/15 00:51:53;;;;;;;18.70;6.43;;;9.80;99.90;;;;;;5074099;28;20768;-77
2022/05/15 00:54:22;;;;;;;23.13;7.17;;;9.80;99.90;;;;;;5074058;28;20045;-78
2022/05/15 00:56:57;;;;;;;24.13;7.23;;;9.80;99.90;;;;;;5075679;28;20048;-78
2022/05/15 00:59:26;;;;;;;25.83;7.70;;;9.80;99.90;;;;;;5073910;28;20060;-77
2022/05/15 01:01:52;;;;;;;27.93;7.80;;;9.80;99.90;;;;;;5074906;28;20752;-77
2022/05/15 01:04:18;;;;;;;23.50;7.50;;;9.90;99.90;;;;;;5074657;28;20040;-77
2022/05/15 01:06:44;;;;;;;29.20;8.00;;;9.90;99.90;;;;;;5075202;28;20080;-78
2022/05/15 01:09:12;;;;;;;26.40;7.10;;;9.90;99.90;;;;;;5067698;28;20029;-77
2022/05/15 01:11:40;;;;;;;18.80;6.37;;;9.90;99.90;;;;;;5071021;28;20075;-77
2022/05/15 01:14:09;;;;;;;26.93;7.23;;;9.90;99.90;;;;;;5063013;28;20096;-78
2022/05/15 01:16:36;;;;;;;24.77;7.50;;;9.90;99.90;;;;;;5057386;28;20072;-78
2022/05/15 01:19:03;;;;;;;22.77;6.93;;;9.80;99.90;;;;;;5075092;28;20056;-77
2022/05/15 01:21:51;;;;;;;24.93;7.80;;;9.70;99.90;;;;;;5074341;28;20135;-77
2022/05/15 01:24:17;;;;;;;17.40;6.97;;;9.70;99.90;;;;;;5063545;28;20424;-78
2022/05/15 01:26:44;;;;;;;15.47;6.60;;;9.70;99.90;;;;;;5075824;28;20443;-78
2022/05/15 01:29:10;;;;;;;20.83;6.90;;;9.60;99.90;;;;;;5073934;28;20048;-77
2022/05/15 01:31:37;;;;;;;20.63;6.97;;;9.60;99.90;;;;;;5065204;28;20120;-78
2022/05/15 01:34:06;;;;;;;21.23;6.90;;;9.50;99.90;;;;;;5069025;28;20056;-78
2022/05/15 01:36:32;;;;;;;20.93;7.10;;;9.50;99.90;;;;;;5073223;28;20060;-78
2022/05/15 01:38:57;;;;;;;19.43;7.17;;;9.40;99.90;;;;;;5074809;28;20052;-77
2022/05/15 01:41:25;;;;;;;21.80;7.57;;;9.30;99.90;;;;;;5073478;28;20060;-78
2022/05/15 01:43:53;;;;;;;20.47;8.03;;;9.30;99.90;;;;;;5075054;28;20060;-77
2022/05/15 01:46:21;;;;;;;23.27;8.20;;;9.20;99.90;;;;;;5056394;28;20048;-78
2022/05/15 01:48:49;;;;;;;19.87;6.87;;;9.20;99.90;;;;;;5069343;28;20056;-77
2022/05/15 01:51:15;;;;;;;19.57;6.33;;;9.10;99.90;;;;;;5066823;28;20087;-77
2022/05/15 01:53:41;;;;;;;21.30;8.40;;;9.00;99.90;;;;;;5068844;28;20051;-78
2022/05/15 01:56:06;;;;;;;20.87;7.20;;;9.10;99.90;;;;;;5037733;28;20060;-77
2022/05/15 01:58:33;;;;;;;20.80;7.30;;;9.10;99.90;;;;;;5064023;28;20113;-77
2022/05/15 02:00:59;;;;;;;18.63;6.50;;;9.10;99.90;;;;;;5073926;28;20075;-78
2022/05/15 02:03:24;;;;;;;19.27;7.07;;;9.10;99.90;;;;;;5072592;28;20032;-78
2022/05/15 02:05:50;;;;;;;10.40;4.93;;;9.10;99.90;;;;;;5074251;28;20079;-78
2022/05/15 02:08:17;;;;;;;20.03;7.60;;;9.10;99.90;;;;;;5056720;28;20102;-78
2022/05/15 02:10:44;;;;;;;21.90;7.03;;;9.10;99.90;;;;;;5073186;28;20473;-77
2022/05/15 02:13:10;;;;;;;15.60;6.43;;;9.10;99.90;;;;;;5073347;28;20051;-77
2022/05/15 02:15:36;;;;;;;23.03;7.00;;;9.00;99.90;;;;;;5073240;28;20036;-77
2022/05/15 02:18:02;;;;;;;23.70;7.17;;;9.00;99.90;;;;;;5074359;28;20056;-78
2022/05/15 02:20:28;;;;;;;13.30;5.30;;;9.00;99.90;;;;;;5073197;28;20115;-78
2022/05/15 02:22:54;;;;;;;23.87;7.73;;;8.90;99.90;;;;;;5069265;28;20084;-78
2022/05/15 02:25:20;;;;;;;20.27;7.53;;;8.90;99.90;;;;;;5054238;28;20618;-78
2022/05/15 02:27:46;;;;;;;16.03;7.10;;;8.90;99.90;;;;;;5074085;28;20049;-77
2022/05/15 02:30:13;;;;;;;24.93;7.60;;;8.90;99.90;;;;;;5073307;28;20048;-77
2022/05/15 02:32:39;;;;;;;25.43;8.50;;;8.80;99.90;;;;;;5073159;28;20571;-78
2022/05/15 02:35:05;;;;;;;23.53;7.77;;;8.70;99.90;;;;;;5073053;28;20603;-77
2022/05/15 02:37:31;;;;;;;18.90;7.13;;;8.70;99.90;;;;;;5072109;28;20048;-78
2022/05/15 02:39:57;;;;;;;22.93;8.00;;;8.60;99.90;;;;;;5075313;28;20060;-78
2022/05/15 02:42:22;;;;;;;22.53;7.27;;;8.60;99.90;;;;;;5072439;28;20523;-78
2022/05/15 02:44:48;;;;;;;23.70;7.97;;;8.60;99.90;;;;;;5073424;28;20049;-77
2022/05/15 02:47:15;;;;;;;24.00;8.10;;;8.60;99.90;;;;;;5072071;28;20052;-77
2022/05/15 02:52:24;;;;;;;20.63;7.50;;;8.50;99.90;;;;;;5065912;28;20091;-77
2022/05/15 02:54:50;;;;;;;24.23;8.37;;;8.50;99.90;;;;;;5052711;28;20056;-78
2022/05/15 02:57:16;;;;;;;22.83;7.87;;;8.50;99.90;;;;;;5076601;28;20520;-78
2022/05/15 02:59:42;;;;;;;25.13;7.37;;;8.50;99.90;;;;;;5070215;28;20044;-78
2022/05/15 03:02:07;;;;;;;22.20;7.60;;;8.50;99.90;;;;;;5060683;28;20044;-77
2022/05/15 03:04:36;;;;;;;22.13;8.60;;;8.40;99.90;;;;;;5076771;28;20055;-77
2022/05/15 03:07:04;;;;;;;22.17;7.53;;;8.40;99.90;;;;;;5076702;28;20048;-78
2022/05/15 03:09:29;;;;;;;18.77;7.30;;;8.30;99.90;;;;;;5059636;28;20068;-77
2022/05/15 03:11:55;;;;;;;22.37;7.63;;;8.30;99.90;;;;;;5058794;28;20056;-77
2022/05/15 03:14:21;;;;;;;27.20;8.23;;;8.30;99.90;;;;;;5061158;28;20056;-78
2022/05/15 03:16:46;;;;;;;22.77;7.90;;;8.30;99.90;;;;;;5076011;28;20053;-78
2022/05/15 03:19:12;;;;;;;22.30;7.80;;;8.30;99.90;;;;;;5045265;28;20044;-77
2022/05/15 03:21:38;;;;;;;28.17;9.13;;;8.30;99.90;;;;;;5054659;28;20572;-78
2022/05/15 03:24:07;;;;;;;30.60;8.33;;;8.30;99.90;;;;;;5066681;28;20540;-78
2022/05/15 03:26:36;;;;;;;33.37;9.67;;;8.30;99.90;;;;;;5075548;28;20041;-77
2022/05/15 03:29:03;;;;;;;28.77;9.13;;;8.30;99.90;;;;;;5056393;28;20049;-77
2022/05/15 03:31:29;;;;;;;23.00;8.47;;;8.30;99.90;;;;;;5077356;28;20048;-77
2022/05/15 03:33:54;;;;;;;32.57;9.93;;;8.30;99.90;;;;;;5075992;28;20056;-77
2022/05/15 03:36:20;;;;;;;25.93;9.70;;;8.30;99.90;;;;;;5058351;28;20067;-78
2022/05/15 03:38:46;;;;;;;35.90;10.60;;;8.30;99.90;;;;;;5073339;28;20484;-78
2022/05/15 03:41:13;;;;;;;30.73;10.60;;;8.40;99.90;;;;;;5059128;28;20044;-78
2022/05/15 03:43:39;;;;;;;34.30;9.93;;;8.40;99.90;;;;;;5056692;28;20099;-78
2022/05/15 03:46:07;;;;;;;28.80;10.23;;;8.50;99.90;;;;;;5057394;28;20044;-78
2022/05/15 03:48:33;;;;;;;30.13;10.87;;;8.50;99.90;;;;;;5076219;28;20160;-77
2022/05/15 03:50:59;;;;;;;25.67;9.97;;;8.50;99.90;;;;;;5074829;28;20109;-77
2022/05/15 03:53:26;;;;;;;31.27;10.50;;;8.50;99.90;;;;;;5068104;28;20049;-77
2022/05/15 03:55:55;;;;;;;27.87;9.87;;;8.50;99.90;;;;;;5075950;28;20059;-77
2022/05/15 03:58:22;;;;;;;29.83;10.00;;;8.60;99.90;;;;;;5073837;28;20060;-77
2022/05/15 04:00:49;;;;;;;21.93;10.00;;;8.60;99.90;;;;;;5075433;28;20071;-77
2022/05/15 04:03:14;;;;;;;24.03;9.77;;;8.60;99.90;;;;;;5073539;28;20127;-78
2022/05/15 04:05:40;;;;;;;28.60;9.13;;;8.60;99.90;;;;;;5075209;28;20141;-77
2022/05/15 04:08:06;;;;;;;25.40;9.10;;;8.70;99.90;;;;;;5073509;28;20062;-78
2022/05/15 04:10:32;;;;;;;28.33;9.03;;;8.70;99.90;;;;;;5074770;28;20052;-77
2022/05/15 04:12:57;;;;;;;29.20;10.80;;;8.60;99.90;;;;;;5074770;28;20048;-77
2022/05/15 04:15:23;;;;;;;30.43;10.60;;;8.60;99.90;;;;;;5074521;28;20452;-78
2022/05/15 04:17:50;;;;;;;28.83;9.40;;;8.60;99.90;;;;;;5050294;28;20037;-77
2022/05/15 04:20:20;;;;;;;27.30;10.40;;;8.70;99.90;;;;;;5073557;28;20630;-77
2022/05/15 04:22:46;;;;;;;24.37;10.53;;;8.70;99.90;;;;;;5052045;28;20049;-77
2022/05/15 04:25:12;;;;;;;28.93;10.70;;;8.70;99.90;;;;;;5069907;28;20060;-77
2022/05/15 04:27:39;;;;;;;30.70;10.87;;;8.70;99.90;;;;;;5075026;28;20047;-78
2022/05/15 04:30:06;;;;;;;29.70;9.77;;;8.70;99.90;;;;;;5068076;28;20049;-77
2022/05/15 04:32:32;;;;;;;31.20;10.53;;;8.80;99.90;;;;;;5055009;28;20094;-77
2022/05/15 04:34:58;;;;;;;32.17;10.57;;;8.90;99.90;;;;;;5058333;28;20045;-77
2022/05/15 04:37:24;;;;;;;28.30;10.33;;;8.90;99.90;;;;;;5054467;28;20482;-78
2022/05/15 04:39:50;;;;;;;27.17;9.87;;;9.00;99.90;;;;;;5072498;28;20125;-77
2022/05/15 04:42:16;;;;;;;25.40;9.87;;;9.10;99.90;;;;;;5074048;28;20052;-78
2022/05/15 04:44:42;;;;;;;26.13;10.13;;;9.20;99.90;;;;;;5057562;28;20071;-78
2022/05/15 04:47:07;;;;;;;29.73;11.30;;;9.20;99.90;;;;;;5060557;28;20041;-77
2022/05/15 04:49:33;;;;;;;26.57;10.40;;;9.30;99.90;;;;;;5070441;28;20051;-77
2022/05/15 04:51:59;;;;;;;26.70;11.13;;;9.30;99.90;;;;;;5074368;28;20052;-77
2022/05/15 04:54:24;;;;;;;25.97;10.00;;;9.40;99.90;;;;;;5065422;28;20099;-77
2022/05/15 04:56:50;;;;;;;27.63;9.73;;;9.50;99.90;;;;;;5033378;28;1106200;-77
2022/05/15 04:59:16;;;;;;;27.67;9.47;;;9.50;99.90;;;;;;5074650;28;20119;-77
2022/05/15 05:01:41;;;;;;;27.20;10.70;;;9.60;99.90;;;;;;5076290;28;20067;-77
2022/05/15 05:04:07;;;;;;;24.80;9.70;;;9.60;99.90;;;;;;5074411;28;20036;-76
2022/05/15 05:06:33;;;;;;;29.60;10.93;;;9.70;99.90;;;;;;5074602;28;20076;-79
2022/05/15 05:08:59;;;;;;;26.93;10.03;;;9.70;99.90;;;;;;5072202;28;20048;-77
2022/05/15 05:11:24;;;;;;;35.70;12.30;;;9.80;99.90;;;;;;5069866;28;20473;-78
2022/05/15 05:13:50;;;;;;;29.73;10.63;;;9.90;99.90;;;;;;5059283;28;20037;-78
2022/05/15 05:16:17;;;;;;;26.90;11.33;;;9.90;99.90;;;;;;5072926;28;20123;-77
2022/05/15 05:18:42;;;;;;;30.90;10.90;;;10.00;99.90;;;;;;5072350;28;20044;-77
2022/05/15 05:21:08;;;;;;;27.90;9.80;;;10.00;99.90;;;;;;5073332;28;20048;-77
2022/05/15 05:23:34;;;;;;;27.90;10.97;;;10.10;99.90;;;;;;5075082;28;20037;-77
2022/05/15 05:26:00;;;;;;;34.70;12.07;;;10.10;99.90;;;;;;5057666;28;20100;-77
2022/05/15 05:28:26;;;;;;;28.50;12.70;;;10.10;99.90;;;;;;5069691;28;20079;-78
2022/05/15 05:30:52;;;;;;;26.80;10.93;;;10.20;99.90;;;;;;5062973;28;20070;-78
2022/05/15 05:33:19;;;;;;;26.83;10.87;;;10.20;99.90;;;;;;5047171;28;20070;-78
2022/05/15 05:35:44;;;;;;;31.23;10.63;;;10.30;99.90;;;;;;5049327;28;20055;-80
2022/05/15 05:38:11;;;;;;;21.20;10.13;;;10.40;99.90;;;;;;5065017;28;20132;-80
2022/05/15 05:40:37;;;;;;;29.60;10.93;;;10.50;99.90;;;;;;5047766;28;20245;-78
2022/05/15 05:43:03;;;;;;;20.67;9.40;;;10.50;99.90;;;;;;5035160;28;20075;-78
2022/05/15 05:45:29;;;;;;;22.13;10.50;;;10.60;99.90;;;;;;5060482;28;20067;-78
2022/05/15 05:47:55;;;;;;;23.60;10.03;;;10.70;99.90;;;;;;5067153;28;20028;-78
2022/05/15 05:50:24;;;;;;;25.00;10.00;;;10.80;99.90;;;;;;5048850;28;20060;-78
2022/05/15 05:52:51;;;;;;;25.90;9.37;;;10.90;99.90;;;;;;5075982;28;20044;-78
2022/05/15 05:55:18;;;;;;;23.93;9.40;;;11.00;99.90;;;;;;5074730;28;20540;-79
2022/05/15 05:57:45;;;;;;;26.33;10.40;;;11.10;99.90;;;;;;5074185;28;20045;-79
2022/05/15 06:00:24;;;;;;;26.23;10.20;;;11.20;99.90;;;;;;5069255;28;20044;-79
2022/05/15 06:02:51;;;;;;;27.13;10.33;;;11.40;99.90;;;;;;5067575;28;20033;-78
2022/05/15 06:05:16;;;;;;;24.63;10.10;;;11.60;99.90;;;;;;5070858;28;20074;-76
2022/05/15 06:07:42;;;;;;;25.30;9.50;;;11.80;99.90;;;;;;5072637;28;20040;-76
2022/05/15 06:10:10;;;;;;;26.53;9.90;;;11.90;99.90;;;;;;5064741;28;20101;-76
2022/05/15 06:12:40;;;;;;;25.07;9.67;;;12.10;99.90;;;;;;5065723;28;20055;-77
2022/05/15 06:15:07;;;;;;;20.63;9.43;;;12.30;99.90;;;;;;5074162;28;20050;-76
2022/05/15 06:17:33;;;;;;;28.63;9.53;;;12.40;99.90;;;;;;5070058;28;20044;-76
2022/05/15 06:19:58;;;;;;;22.87;9.60;;;12.60;99.90;;;;;;5072472;28;20056;-77
2022/05/15 06:22:24;;;;;;;22.23;8.10;;;12.70;99.90;;;;;;5070676;28;20507;-76
2022/05/15 06:24:50;;;;;;;23.50;8.93;;;12.90;99.90;;;;;;5068328;28;20044;-79
2022/05/15 06:27:15;;;;;;;22.43;7.40;;;13.10;99.90;;;;;;5063695;28;20048;-78
2022/05/15 06:29:42;;;;;;;21.90;7.87;;;13.30;99.90;;;;;;5060203;28;20972;-76
2022/05/15 06:32:08;;;;;;;21.63;7.40;;;13.50;99.90;;;;;;5064529;28;20133;-75
2022/05/15 06:34:35;;;;;;;25.37;7.73;;;13.70;99.90;;;;;;5068111;28;20136;-87
2022/05/15 06:37:01;;;;;;;17.47;6.10;;;13.90;99.90;;;;;;5062425;28;20052;-85
2022/05/15 06:39:26;;;;;;;21.30;7.00;;;14.10;99.90;;;;;;5049185;28;20060;-86
2022/05/15 06:41:56;;;;;;;23.47;7.37;;;14.20;99.90;;;;;;5063199;28;20060;-93
2022/05/15 06:44:22;;;;;;;18.30;6.50;;;14.40;99.90;;;;;;5044106;28;20068;-78
2022/05/15 06:46:47;;;;;;;19.07;6.73;;;14.50;99.90;;;;;;5064929;28;20051;-82
2022/05/15 06:49:14;;;;;;;24.10;6.83;;;14.60;99.90;;;;;;5063894;28;20437;-81
2022/05/15 06:51:40;;;;;;;19.00;6.07;;;14.60;99.90;;;;;;5057369;28;20508;-80
2022/05/15 06:54:06;;;;;;;16.20;5.90;;;14.70;99.90;;;;;;5040730;28;20049;-80
2022/05/15 06:59:16;;;;;;;18.20;6.03;;;14.90;99.90;;;;;;5057215;28;20419;-80
2022/05/15 07:01:42;;;;;;;23.03;6.83;;;14.90;99.90;;;;;;5062511;28;20079;-80
2022/05/15 07:04:07;;;;;;;19.53;6.90;;;15.00;99.90;;;;;;5061153;28;20079;-81
2022/05/15 07:06:33;;;;;;;19.93;6.50;;;15.20;99.90;;;;;;5048370;28;20159;-81
2022/05/15 07:08:59;;;;;;;15.03;6.10;;;15.30;99.90;;;;;;5062826;28;20057;-80
2022/05/15 07:11:25;;;;;;;20.77;6.80;;;15.40;99.90;;;;;;5046738;28;20049;-80
2022/05/15 07:13:51;;;;;;;21.17;6.87;;;15.40;99.90;;;;;;5062456;28;20041;-80
2022/05/15 07:16:16;;;;;;;19.23;6.00;;;15.50;99.90;;;;;;5062573;28;20045;-80
2022/05/15 07:18:42;;;;;;;19.50;5.33;;;15.60;99.90;;;;;;5065580;28;20029;-81
2022/05/15 07:21:08;;;;;;;18.42;6.03;;;15.80;99.90;;;;;;5059990;28;20132;-81
2022/05/15 07:23:35;;;;;;;13.75;5.43;;;15.90;99.90;;;;;;5062482;28;20051;-81
2022/05/15 07:26:02;;;;;;;18.70;5.90;;;15.90;99.90;;;;;;5061116;28;20454;-81
2022/05/15 07:28:28;;;;;;;17.02;5.57;;;16.10;99.90;;;;;;5048500;28;20036;-81
2022/05/15 07:30:54;;;;;;;18.85;5.95;;;16.20;99.90;;;;;;5061523;28;20070;-81
2022/05/15 07:33:22;;;;;;;12.32;4.95;;;16.30;99.90;;;;;;5062338;28;20044;-82
2022/05/15 07:35:48;;;;;;;23.50;6.13;;;16.30;99.90;;;;;;5065477;28;20076;-80
2022/05/15 07:38:15;;;;;;;14.88;5.72;;;16.50;99.90;;;;;;5048239;28;20037;-80
2022/05/15 07:40:42;;;;;;;18.60;4.95;;;16.60;99.90;;;;;;5064645;28;20045;-80
2022/05/15 07:43:09;;;;;;;15.73;5.50;;;16.70;99.90;;;;;;5066767;28;20167;-80
2022/05/15 07:45:35;;;;;;;17.33;5.85;;;16.80;99.90;;;;;;5046414;28;20048;-79
2022/05/15 07:48:01;;;;;;;18.38;5.60;;;17.00;99.90;;;;;;5048232;28;20059;-79
2022/05/15 07:50:27;;;;;;;15.57;5.53;;;17.20;99.90;;;;;;5061375;28;20334;-80
2022/05/15 07:52:53;;;;;;;15.98;5.55;;;17.30;99.90;;;;;;5064722;28;20056;-80
2022/05/15 07:55:19;;;;;;;22.60;5.28;;;17.50;99.90;;;;;;5061690;28;20043;-80
2022/05/15 07:57:44;;;;;;;18.13;5.50;;;17.60;99.90;;;;;;5063388;28;20084;-80
2022/05/15 08:00:14;;;;;;;13.82;4.60;;;17.70;99.90;;;;;;5065616;28;20079;-80
2022/05/15 08:02:41;;;;;;;18.77;6.38;;;17.90;99.90;;;;;;5063093;28;20045;-80
2022/05/15 08:08:02;;;;;;;18.27;5.13;;;18.20;99.90;;;;;;5064409;28;20045;-80
2022/05/15 08:10:30;;;;;;;14.75;4.45;;;18.30;99.90;;;;;;5066158;28;20045;-80
2022/05/15 08:12:56;;;;;;;18.83;5.30;;;18.40;99.90;;;;;;5051405;28;20047;-80
2022/05/15 08:15:22;;;;;;;18.88;5.50;;;18.50;99.90;;;;;;5046551;28;20040;-80
2022/05/15 08:17:47;;;;;;;12.82;4.32;;;18.60;99.90;;;;;;5062485;28;20075;-82
2022/05/15 08:25:45;;;;;;;14.82;4.68;;;18.80;99.90;;;;;;5065634;28;20502;-79
2022/05/15 08:28:11;;;;;;;12.50;5.00;;;19.00;99.90;;;;;;5067898;28;20064;-81
2022/05/15 08:30:37;;;;;;;13.75;4.25;;;19.00;99.90;;;;;;5062780;28;20052;-81
2022/05/15 08:33:03;;;;;;;14.38;5.20;;;19.10;99.90;;;;;;5063130;28;20044;-81
2022/05/15 08:35:29;;;;;;;22.75;4.90;;;19.20;99.90;;;;;;5063807;28;20072;-83
2022/05/15 08:37:56;;;;;;;16.02;4.40;;;19.30;99.90;;;;;;5047139;28;20045;-81
2022/05/15 08:40:25;;;;;;;14.23;4.35;;;19.40;99.90;;;;;;5048842;28;20047;-81
2022/05/15 08:42:56;;;;;;;17.38;4.47;;;19.40;99.90;;;;;;5064923;28;20070;-81
2022/05/15 08:45:30;;;;;;;12.55;4.35;;;19.60;99.90;;;;;;5048091;28;20212;-81
2022/05/15 08:48:04;;;;;;;15.07;4.72;;;19.60;99.90;;;;;;5064536;28;20090;-81
2022/05/15 08:50:37;;;;;;;14.73;4.00;;;19.70;99.90;;;;;;5065887;28;20040;-81
2022/05/15 08:53:06;;;;;;;13.15;3.90;;;19.90;99.90;;;;;;5062481;28;20048;-81
2022/05/15 08:55:44;;;;;;;14.27;4.65;;;20.00;99.90;;;;;;5065514;28;20060;-82
2022/05/15 08:58:25;;;;;;;13.68;3.75;;;20.10;99.90;;;;;;5047745;28;20506;-81
2022/05/15 09:00:53;;;;;;;16.55;4.30;;;20.30;99.90;;;;;;5056972;28;20048;-81
2022/05/15 09:03:27;;;;;;;14.65;4.57;;;20.40;99.90;;;;;;5058895;28;20056;-82
2022/05/15 09:06:03;;;;;;;12.25;3.67;;;20.50;99.90;;;;;;5055430;28;20633;-81
2022/05/15 09:08:52;;;;;;;17.67;4.78;;;20.60;99.90;;;;;;5062365;28;20186;-82
2022/05/15 09:11:56;;;;;;;15.95;4.53;;;20.50;94.10;;;;;;5065335;28;20059;-82
2022/05/15 09:14:49;;;;;;;15.40;4.35;;;20.30;96.30;;;;;;5061220;28;20045;-81
2022/05/15 09:17:45;;;;;;;16.80;4.88;;;20.30;99.90;;;;;;5061501;28;20045;-81
2022/05/15 09:20:30;;;;;;;15.90;3.95;;;20.50;99.20;;;;;;5063943;28;20129;-80
2022/05/15 09:23:21;;;;;;;16.77;4.72;;;20.60;97.00;;;;;;5061243;28;20059;-81
2022/05/15 09:25:54;;;;;;;14.98;4.40;;;20.80;99.90;;;;;;5063425;28;20155;-80
2022/05/15 09:28:20;;;;;;;15.60;4.75;;;20.90;98.10;;;;;;5061737;28;20389;-81
2022/05/15 09:30:49;;;;;;;19.92;4.50;;;21.10;96.30;;;;;;5064711;28;20049;-81
2022/05/15 09:33:34;;;;;;;15.50;4.38;;;21.20;95.00;;;;;;5064627;28;20048;-82
2022/05/15 09:36:17;;;;;;;11.77;3.90;;;21.20;81.00;;;;;;5063874;28;20041;-81
2022/05/15 09:38:43;;;;;;;16.20;4.78;;;21.30;93.00;;;;;;5061350;28;20051;-81
2022/05/15 09:44:35;;;;;;;15.15;4.65;;;21.40;87.40;;;;;;5043699;28;20523;-81
2022/05/15 09:47:22;;;;;;;14.23;4.15;;;21.40;83.60;;;;;;5064732;28;20055;-81
2022/05/15 09:49:48;;;;;;;13.50;5.00;;;21.50;75.40;;;;;;5061934;28;20045;-81
2022/05/15 09:52:38;;;;;;;12.27;3.90;;;21.60;86.00;;;;;;5064150;28;20044;-81
2022/05/15 09:55:23;;;;;;;15.65;4.32;;;21.70;76.20;;;;;;5063621;28;20060;-81
2022/05/15 09:58:17;;;;;;;10.50;4.30;;;21.80;77.40;;;;;;5046473;28;20706;-81
2022/05/15 10:00:43;;;;;;;12.63;3.78;;;21.90;71.00;;;;;;5064298;28;20108;-81
2022/05/15 10:03:17;;;;;;;13.30;4.15;;;21.80;79.50;;;;;;5030208;28;20073;-79
2022/05/15 10:05:42;;;;;;;12.63;4.38;;;22.00;71.00;;;;;;5066364;28;20041;-81
2022/05/15 10:08:20;;;;;;;12.48;3.85;;;22.00;75.00;;;;;;5057918;28;20128;-81
2022/05/15 10:11:08;;;;;;;20.63;4.80;;;22.10;74.90;;;;;;5062079;28;20094;-81
2022/05/15 10:13:44;;;;;;;15.10;4.43;;;22.20;67.60;;;;;;5061550;28;20048;-81
2022/05/15 10:16:20;;;;;;;18.45;4.07;;;22.30;66.10;;;;;;5058877;28;20163;-81
2022/05/15 10:19:01;;;;;;;13.80;3.97;;;22.30;64.80;;;;;;5044856;28;20044;-81
2022/05/15 10:22:03;;;;;;;13.32;3.90;;;22.40;66.00;;;;;;5063541;28;20637;-80
2022/05/15 10:24:37;;;;;;;12.65;5.18;;;22.50;62.90;;;;;;5058416;28;20168;-81
2022/05/15 10:27:22;;;;;;;14.20;3.88;;;22.60;63.60;;;;;;5048068;28;20041;-81
2022/05/15 10:29:50;;;;;;;14.60;4.30;;;22.70;66.60;;;;;;5058765;28;20091;-81
2022/05/15 10:32:29;;;;;;;10.73;3.95;;;22.80;67.50;;;;;;5062174;28;20649;-81
2022/05/15 10:34:56;;;;;;;16.85;4.65;;;22.90;60.80;;;;;;5061501;28;20049;-81
2022/05/15 10:37:31;;;;;;;14.82;5.00;;;22.80;63.50;;;;;;5057435;28;20051;-81
2022/05/15 10:40:14;;;;;;;13.18;4.72;;;22.60;59.60;;;;;;5059118;28;20069;-82
2022/05/15 10:43:21;;;;;;;13.77;4.47;;;22.50;60.50;;;;;;5059338;28;20091;-81
2022/05/15 10:46:13;;;;;;;14.23;4.60;;;22.50;60.30;;;;;;5044152;28;20041;-80
2022/05/15 10:48:56;;;;;;;12.13;4.32;;;22.60;62.10;;;;;;5064509;28;20045;-80
2022/05/15 10:51:26;;;;;;;15.35;4.32;;;22.50;63.60;;;;;;5066189;28;20496;-85
2022/05/15 10:57:29;;;;;;;15.02;4.47;;;22.70;60.60;;;;;;5066285;28;20494;-85
2022/05/15 11:00:22;;;;;;;11.55;4.03;;;22.80;63.00;;;;;;5069705;28;20071;-85
2022/05/15 11:02:51;;;;;;;9.52;3.70;;;22.90;60.70;;;;;;5061734;28;20114;-85
2022/05/15 11:05:24;;;;;;;12.23;3.95;;;22.90;58.30;;;;;;5063174;28;20095;-85
2022/05/15 11:07:59;;;;;;;9.38;3.83;;;23.00;59.30;;;;;;5059745;28;20029;-84
2022/05/15 11:10:35;;;;;;;10.52;3.97;;;23.20;57.40;;;;;;5068126;28;20049;-85
2022/05/15 11:13:16;;;;;;;10.27;3.65;;;23.30;56.90;;;;;;5048089;28;20056;-82
2022/05/15 11:16:01;;;;;;;13.10;4.47;;;23.40;58.10;;;;;;5059389;28;20120;-83
2022/05/15 11:19:06;;;;;;;10.70;4.10;;;23.50;54.90;;;;;;5054180;28;20047;-83
2022/05/15 11:22:04;;;;;;;11.23;4.05;;;23.40;55.70;;;;;;5070219;28;20048;-83
2022/05/15 11:24:40;;;;;;;14.02;4.03;;;23.60;56.80;;;;;;5061001;28;20064;-84
2022/05/15 11:27:16;;;;;;;13.55;3.83;;;23.40;55.00;;;;;;5075221;28;20067;-83
2022/05/15 11:29:46;;;;;;;10.27;4.18;;;23.20;56.20;;;;;;5075175;28;20067;-83
2022/05/15 11:32:31;;;;;;;16.83;4.70;;;23.20;56.70;;;;;;5074700;28;20029;-83
2022/05/15 11:35:10;;;;;;;12.93;3.78;;;23.30;52.90;;;;;;5068759;28;20113;-83
2022/05/15 11:37:39;;;;;;;14.38;3.55;;;23.30;54.20;;;;;;5066370;28;20053;-84
2022/05/15 11:40:42;;;;;;;13.10;3.85;;;23.40;55.20;;;;;;5071430;28;20052;-84
2022/05/15 11:43:26;;;;;;;9.18;3.92;;;23.70;52.40;;;;;;5065098;28;20126;-83
2022/05/15 11:46:09;;;;;;;6.80;3.13;;;23.90;53.60;;;;;;5048170;28;20115;-84
2022/05/15 11:48:38;;;;;;;11.95;3.58;;;24.00;52.70;;;;;;5068404;28;20045;-84
2022/05/15 11:51:32;;;;;;;7.72;3.78;;;24.10;53.90;;;;;;5053347;28;20117;-84
2022/05/15 11:54:10;;;;;;;9.90;3.72;;;24.20;52.80;;;;;;5072473;28;20044;-83
2022/05/15 11:56:38;;;;;;;9.55;3.55;;;24.30;52.60;;;;;;5070151;28;20106;-83
2022/05/15 11:59:07;;;;;;;10.38;3.28;;;24.10;52.20;;;;;;5072037;28;20044;-83
2022/05/15 12:01:35;;;;;;;13.35;3.75;;;23.90;51.50;;;;;;5074614;28;20135;-83
2022/05/15 12:04:08;;;;;;;10.65;3.45;;;23.80;51.60;;;;;;5074374;28;20052;-83
2022/05/15 12:06:55;;;;;;;11.52;3.88;;;23.80;51.50;;;;;;5070323;28;20037;-83
2022/05/15 12:09:44;;;;;;;13.85;4.18;;;23.90;50.70;;;;;;5066857;28;20037;-83
2022/05/15 12:12:24;;;;;;;11.60;3.83;;;23.90;51.60;;;;;;5063592;28;20040;-83
2022/05/15 12:15:23;;;;;;;13.43;3.85;;;23.90;52.20;;;;;;5067331;28;20064;-83
2022/05/15 12:17:59;;;;;;;10.48;3.40;;;23.90;51.80;;;;;;5067603;28;20108;-83
2022/05/15 12:20:28;;;;;;;14.55;3.55;;;24.00;53.80;;;;;;5058319;28;20080;-83
2022/05/15 12:22:54;;;;;;;11.65;3.55;;;24.20;51.50;;;;;;5065999;28;20064;-84
2022/05/15 12:25:30;;;;;;;8.57;3.28;;;24.40;52.10;;;;;;5067495;28;20078;-83
2022/05/15 12:30:47;;;;;;;9.73;3.45;;;24.60;51.10;;;;;;5070060;28;20044;-83
2022/05/15 12:33:13;;;;;;;8.93;3.50;;;24.80;51.30;;;;;;5069411;28;20052;-83
2022/05/15 12:35:43;;;;;;;10.40;3.83;;;24.90;52.20;;;;;;5068035;28;20046;-83
2022/05/15 12:38:12;;;;;;;8.60;3.40;;;24.70;50.40;;;;;;5070006;28;20052;-84
2022/05/15 12:40:43;;;;;;;9.88;3.40;;;24.50;50.10;;;;;;5068952;28;20044;-84
2022/05/15 12:43:23;;;;;;;12.82;3.80;;;24.40;50.00;;;;;;5062136;28;20071;-83
2022/05/15 12:45:49;;;;;;;13.15;4.03;;;24.60;50.40;;;;;;5059740;28;20116;-83
2022/05/15 12:48:17;;;;;;;12.68;3.63;;;24.60;49.90;;;;;;5063417;28;20323;-83
2022/05/15 12:51:07;;;;;;;12.57;3.63;;;24.80;49.80;;;;;;5070424;28;20066;-82
2022/05/15 12:53:47;;;;;;;8.75;3.53;;;25.10;50.10;;;;;;5072700;28;20075;-82
2022/05/15 12:56:26;;;;;;;11.45;3.80;;;25.00;48.70;;;;;;5060183;28;20049;-82
2022/05/15 12:58:55;;;;;;;9.23;3.80;;;25.00;49.90;;;;;;5060295;28;20053;-81
2022/05/15 13:01:24;;;;;;;9.13;3.33;;;25.10;49.20;;;;;;5068525;28;20101;-82
2022/05/15 13:03:53;;;;;;;9.98;3.67;;;25.00;49.10;;;;;;5059787;28;20044;-82
2022/05/15 13:06:20;;;;;;;9.25;2.88;;;24.80;48.50;;;;;;5057446;28;20479;-82
2022/05/15 13:08:54;;;;;;;10.95;3.58;;;24.80;49.90;;;;;;5055410;28;20079;-81
2022/05/15 13:11:50;;;;;;;10.85;3.63;;;24.90;49.40;;;;;;5062865;28;20051;-82
2022/05/15 13:14:24;;;;;;;13.43;3.90;;;25.10;49.20;;;;;;5046195;28;20056;-82
2022/05/15 13:16:52;;;;;;;12.75;3.50;;;25.30;48.90;;;;;;5068369;28;20113;-82
2022/05/15 13:19:24;;;;;;;10.63;3.35;;;25.30;48.90;;;;;;5037045;28;20048;-82
2022/05/15 13:21:53;;;;;;;11.32;3.80;;;25.40;47.60;;;;;;5054647;28;20037;-82